FOLSOM LAKE (FOL)

Elevation: 466' · AMERICAN R basin · Operator: US Bureau of Reclamation

Provisional data, subject to change.
Query executed Wednesday at 16:05:45   clock

Select a sensor type for a plot of data.
Note: Reservoir Flows are daily averages.

Earlier

Date RES ELE    STORAGE    RES CHG    TOC STO    ABV TOC    OUTFLOW    INFLOW    EVAP    FNF    RIV REL    PPT INC    SPILL    DC PUMP    DIS PWR   
 FEET   AF   AF   AF   AF   CFS   CFS   CFS   CFS   CFS   INCHES   CFS   CFS   CFS  
04/05/2016 441.29 718807 6859 667141 51666 2935 6419 26 7662 0 0.00 0 106 2829
04/06/2016 441.93 725013 6206 672775 52238 3620 6778 29 7436 0 0.00 0 109 3511
04/07/2016 442.49 730473 5460 678408 52065 3427 6219 39 8643 0 0.00 0 111 3316
04/08/2016 443.15 736923 6450 684042 52881 3754 7039 33 9062 0 0.01 0 94 3660
04/09/2016 443.80 743306 6383 689676 53630 3575 6816 23 10116 0 0.38 0 76 3499
04/10/2016 444.70 752188 8882 695310 56878 3088 7573 7 10515 0 0.11 0 81 3007
04/11/2016 445.42 759330 7142 700944 58386 3680 7291 10 8763 0 0.00 0 85 3595
04/12/2016 446.15 766600 7270 706577 60023 3268 6956 23 8516 0 0.00 0 80 3188
04/13/2016 446.69 772006 5406 712211 59795 3299 6047 23 8435 0 0.00 0 73 3226
04/14/2016 447.13 776419 4413 717845 58574 3362 5610 23 7669 0 0.11 0 79 3283
04/15/2016 447.53 780450 4031 723479 56971 3512 5567 23 6025 0 0.00 0 74 3438
04/16/2016 447.81 783271 2821 729113 54158 3600 5052 30 5329 0 0.00 0 105 3495
04/17/2016 448.04 785592 2321 734746 50846 3579 4783 34 4980 0 0.00 0 130 3449
04/18/2016 448.35 788736 3144 740380 48356 3611 5230 34 6251 0 0.00 0 128 3483
04/19/2016 448.77 792995 4259 746014 46981 3257 5448 44 6842 0 0.00 0 123 3134
04/20/2016 449.22 797574 4579 751648 45926 3046 5399 44 7095 0 0.00 0 118 2928
04/21/2016 449.52 800636 3062 757282 43354 3740 5328 44 6876 0 0.00 0 102 3638
04/22/2016 450.17 807281 6645 762916 44366 3297 6678 31 9685 0 0.81 0 108 3189
04/23/2016 450.64 812108 4827 768549 43559 3300 5744 10 8121 0 0.01 0 101 3199
04/24/2016 451.06 816425 4317 774183 42242 3038 5228 14 7273 0 0.00 0 102 2936
04/25/2016 451.46 820558 4133 779817 40741 3242 5343 17 5539 0 0.00 0 107 3135
04/26/2016 451.95 825620 5062 785451 40169 3682 6268 34 5638 0 0.00 0 108 3574
04/27/2016 451.96 825724 104 791084 34640 3466 3566 48 4651 0 0.07 0 106 3360
04/28/2016 451.96 825724 -- 796718 29006 3222 3318 96 4913 0 0.00 0 107 3115
04/29/2016 451.95 825620 -104 802352 23268 3566 3617 103 3542 0 0.08 0 112 3454
04/30/2016 452.03 826449 829 807986 18463 3591 4112 103 5362 0 0.00 0 120 3471
05/01/2016 452.19 828111 1662 813620 14491 3200 4141 103 4579 0 0.00 0 122 3078
05/02/2016 452.36 829878 1767 819254 10624 3819 4782 72 4569 0 0.00 0 129 3690
05/03/2016 452.64 832788 2910 824887 7901 3442 4964 55 5444 0 0.00 0 117 3325
05/04/2016 -- -- -- -- -- -- -- -- -- -- -- -- -- --

Later | Latest

Warning! This data is preliminary and subject to revision.

Show FOL Map | Plot FOL Data | 1 Month FOL Data | Real-Time FOL Data | FOL Info